createdAt,value
2024-03-12T00:01:41.222Z,14.10
2024-03-12T00:04:11.796Z,14.10
2024-03-12T00:06:39.303Z,14.10
2024-03-12T00:09:07.766Z,14.10
2024-03-12T00:11:36.140Z,14.10
2024-03-12T00:14:03.449Z,14.10
2024-03-12T00:16:33.470Z,14.10
2024-03-12T00:19:01.918Z,14.10
2024-03-12T00:21:30.318Z,14.10
2024-03-12T00:23:59.721Z,14.10
2024-03-12T00:26:26.899Z,14.10
2024-03-12T00:28:53.737Z,14.10
2024-03-12T00:31:22.455Z,14.10
2024-03-12T00:33:49.678Z,14.00
2024-03-12T00:36:16.682Z,14.10
2024-03-12T00:38:43.629Z,14.00
2024-03-12T00:41:11.703Z,14.00
2024-03-12T00:43:38.923Z,14.00
2024-03-12T00:46:06.200Z,14.00
2024-03-12T00:48:33.362Z,14.00
2024-03-12T00:51:00.345Z,13.90
2024-03-12T00:53:27.784Z,13.90
2024-03-12T00:55:55.015Z,13.90
2024-03-12T00:58:22.488Z,13.90
2024-03-12T01:00:54.290Z,13.90
2024-03-12T01:03:21.446Z,13.90
2024-03-12T01:05:49.714Z,13.90
2024-03-12T01:08:16.764Z,13.80
2024-03-12T01:10:43.812Z,13.80
2024-03-12T01:13:11.775Z,13.80
2024-03-12T01:15:40.389Z,13.80
2024-03-12T01:18:09.576Z,13.80
2024-03-12T01:20:37.097Z,13.80
2024-03-12T01:23:06.687Z,13.80
2024-03-12T01:25:36.989Z,13.80
2024-03-12T01:28:07.153Z,13.70
2024-03-12T01:30:35.785Z,13.70
2024-03-12T01:33:07.101Z,13.70
2024-03-12T01:35:39.706Z,13.70
2024-03-12T01:38:10.012Z,13.70
2024-03-12T01:40:37.229Z,13.70
2024-03-12T01:43:08.503Z,13.60
2024-03-12T01:45:36.308Z,13.60
2024-03-12T01:48:10.956Z,13.60
2024-03-12T01:50:41.320Z,13.60
2024-03-12T01:53:09.702Z,13.60
2024-03-12T01:55:39.683Z,13.60
2024-03-12T01:58:07.696Z,13.50
2024-03-12T02:00:35.243Z,13.50
2024-03-12T02:03:02.481Z,13.50
2024-03-12T02:05:29.684Z,13.50
2024-03-12T02:07:56.804Z,13.50
2024-03-12T02:10:26.197Z,13.50
2024-03-12T02:12:53.372Z,13.50
2024-03-12T02:15:22.125Z,13.50
2024-03-12T02:17:52.948Z,13.40
2024-03-12T02:20:22.544Z,13.40
2024-03-12T02:22:54.489Z,13.40
2024-03-12T02:25:21.629Z,13.40
2024-03-12T02:27:48.558Z,13.40
2024-03-12T02:30:15.672Z,13.40
2024-03-12T02:32:42.749Z,13.40
2024-03-12T02:35:12.524Z,13.40
2024-03-12T02:37:40.439Z,13.30
2024-03-12T02:40:19.987Z,13.40
2024-03-12T02:42:47.309Z,13.40
2024-03-12T02:45:21.499Z,13.40
2024-03-12T02:47:48.745Z,13.40
2024-03-12T02:50:17.845Z,13.40
2024-03-12T02:52:46.935Z,13.40
2024-03-12T02:55:14.466Z,13.40
2024-03-12T02:57:41.579Z,13.40
2024-03-12T03:00:16.397Z,13.40
2024-03-12T03:02:44.513Z,13.40
2024-03-12T03:05:12.316Z,13.30
2024-03-12T03:07:44.048Z,13.40
2024-03-12T03:10:12.614Z,13.30
2024-03-12T03:12:41.081Z,13.30
2024-03-12T03:15:10.454Z,13.30
2024-03-12T03:17:37.359Z,13.30
2024-03-12T03:20:06.340Z,13.30
2024-03-12T03:22:33.534Z,13.30
2024-03-12T03:25:00.432Z,13.30
2024-03-12T03:27:27.476Z,13.30
2024-03-12T03:29:57.994Z,13.30
2024-03-12T03:32:25.482Z,13.30
2024-03-12T03:34:53.745Z,13.30
2024-03-12T03:37:23.662Z,13.30
2024-03-12T03:39:50.568Z,13.30
2024-03-12T03:42:17.542Z,13.30
2024-03-12T03:44:44.402Z,13.30
2024-03-12T03:47:11.296Z,13.30
2024-03-12T03:49:38.126Z,13.30
2024-03-12T03:52:05.365Z,13.30
2024-03-12T03:54:32.297Z,13.30
2024-03-12T03:56:59.221Z,13.30
2024-03-12T03:59:26.954Z,13.30
2024-03-12T04:01:53.926Z,13.30
2024-03-12T04:04:20.840Z,13.30
2024-03-12T04:06:49.245Z,13.30
2024-03-12T04:09:17.460Z,13.30
2024-03-12T04:11:45.148Z,13.30
2024-03-12T04:14:11.998Z,13.30
2024-03-12T04:16:38.924Z,13.30
2024-03-12T04:19:06.194Z,13.30
2024-03-12T04:21:33.585Z,13.30
2024-03-12T04:24:01.385Z,13.30
2024-03-12T04:26:30.422Z,13.20
2024-03-12T04:28:57.376Z,13.30
2024-03-12T04:31:24.756Z,13.30
2024-03-12T04:33:53.996Z,13.30
2024-03-12T04:36:24.181Z,13.30
2024-03-12T04:38:51.499Z,13.30
2024-03-12T04:41:20.866Z,13.30
2024-03-12T04:43:51.714Z,13.30
2024-03-12T04:46:19.477Z,13.30
2024-03-12T04:48:47.729Z,13.30
2024-03-12T04:51:15.797Z,13.30
2024-03-12T04:53:43.045Z,13.30
2024-03-12T04:56:10.119Z,13.30
2024-03-12T04:58:38.187Z,13.30
2024-03-12T05:01:07.307Z,13.30
2024-03-12T05:03:34.634Z,13.30
2024-03-12T05:06:01.641Z,13.30
2024-03-12T05:08:29.080Z,13.30
2024-03-12T05:10:57.456Z,13.30
2024-03-12T05:13:25.772Z,13.30
2024-03-12T05:15:53.655Z,13.30
2024-03-12T05:18:20.483Z,13.30
2024-03-12T05:20:47.428Z,13.30
2024-03-12T05:23:14.932Z,13.30
2024-03-12T05:25:43.036Z,13.30
2024-03-12T05:28:11.273Z,13.30
2024-03-12T05:30:42.155Z,13.30
2024-03-12T05:33:11.670Z,13.30
2024-03-12T05:35:40.324Z,13.30
2024-03-12T05:38:13.530Z,13.30
2024-03-12T05:41:05.659Z,13.30
2024-03-12T05:43:51.013Z,13.30
2024-03-12T05:46:36.870Z,13.30
2024-03-12T05:49:05.233Z,13.30
2024-03-12T05:51:33.729Z,13.30
2024-03-12T05:54:00.630Z,13.30
2024-03-12T05:56:27.841Z,13.30
2024-03-12T05:58:54.736Z,13.30
2024-03-12T06:01:25.466Z,13.30
2024-03-12T06:03:52.936Z,13.30
2024-03-12T06:06:20.281Z,13.30
2024-03-12T06:08:47.581Z,13.30
2024-03-12T06:11:15.630Z,13.30
2024-03-12T06:13:44.202Z,13.30
2024-03-12T06:16:12.422Z,13.30
2024-03-12T06:18:40.486Z,13.30
2024-03-12T06:21:08.457Z,13.30
2024-03-12T06:23:36.011Z,13.30
2024-03-12T06:26:04.813Z,13.30
2024-03-12T06:28:32.432Z,13.30
2024-03-12T06:31:00.158Z,13.30
2024-03-12T06:33:28.143Z,13.40
2024-03-12T06:35:55.229Z,13.30
2024-03-12T06:38:22.110Z,13.30
2024-03-12T06:40:49.554Z,13.30
2024-03-12T06:43:19.197Z,13.30
2024-03-12T06:45:48.127Z,13.30
2024-03-12T06:48:19.424Z,13.30
2024-03-12T06:50:47.034Z,13.30
2024-03-12T06:53:15.762Z,13.30
2024-03-12T06:55:42.884Z,13.30
2024-03-12T06:58:12.998Z,13.40
2024-03-12T07:00:45.802Z,13.30
2024-03-12T07:03:15.467Z,13.40
2024-03-12T07:05:48.474Z,13.40
2024-03-12T07:08:18.724Z,13.40
2024-03-12T07:10:46.754Z,13.40
2024-03-12T07:13:14.588Z,13.40
2024-03-12T07:15:43.739Z,13.40
2024-03-12T07:18:10.972Z,13.40
2024-03-12T07:20:38.921Z,13.40
2024-03-12T07:23:07.003Z,13.40
2024-03-12T07:25:35.206Z,13.40
2024-03-12T07:28:09.318Z,13.50
2024-03-12T07:30:37.147Z,13.50
2024-03-12T07:33:05.294Z,13.50
2024-03-12T07:35:36.303Z,13.50
2024-03-12T07:38:04.744Z,13.50
2024-03-12T07:40:33.227Z,13.50
2024-03-12T07:43:00.908Z,13.60
2024-03-12T07:45:29.184Z,13.60
2024-03-12T07:47:57.560Z,13.60
2024-03-12T07:50:29.679Z,13.60
2024-03-12T07:52:57.011Z,13.60
2024-03-12T07:55:24.268Z,13.70
2024-03-12T07:57:51.657Z,13.70
2024-03-12T08:00:18.793Z,13.70
2024-03-12T08:02:45.653Z,13.70
2024-03-12T08:05:13.596Z,13.70
2024-03-12T08:07:41.695Z,13.70
2024-03-12T08:10:10.820Z,13.80
2024-03-12T08:12:40.718Z,13.80
2024-03-12T08:15:09.939Z,13.80
2024-03-12T08:17:39.069Z,13.80
2024-03-12T08:20:07.370Z,13.90
2024-03-12T08:22:34.433Z,13.90
2024-03-12T08:25:02.160Z,13.90
2024-03-12T08:27:29.297Z,13.90
2024-03-12T08:29:58.421Z,13.90
2024-03-12T08:32:26.298Z,13.90
2024-03-12T08:34:53.544Z,14.00
2024-03-12T08:37:23.868Z,14.00
2024-03-12T08:39:54.331Z,14.00
2024-03-12T08:42:21.776Z,14.00
2024-03-12T08:44:49.060Z,14.10
2024-03-12T08:47:16.275Z,14.10
2024-03-12T08:49:44.100Z,14.10
2024-03-12T08:52:11.281Z,14.10
2024-03-12T08:54:38.618Z,14.20
2024-03-12T08:57:06.347Z,14.20
2024-03-12T08:59:33.244Z,14.20
2024-03-12T09:02:01.373Z,14.20
2024-03-12T09:04:32.586Z,14.30
2024-03-12T09:07:00.328Z,14.30
2024-03-12T09:09:27.926Z,14.30
2024-03-12T09:11:59.108Z,14.30
2024-03-12T09:14:26.080Z,14.40
2024-03-12T09:16:53.405Z,14.30
2024-03-12T09:19:22.686Z,14.40
2024-03-12T09:21:49.661Z,14.40
2024-03-12T09:24:16.680Z,14.40
2024-03-12T09:26:45.245Z,14.40
2024-03-12T09:29:14.282Z,14.40
2024-03-12T09:31:42.835Z,14.50
2024-03-12T09:34:11.600Z,14.50
2024-03-12T09:36:38.796Z,14.50
2024-03-12T09:39:12.049Z,14.50
2024-03-12T09:41:46.801Z,14.50
2024-03-12T09:44:13.744Z,14.40
2024-03-12T09:46:42.342Z,14.40
2024-03-12T09:51:42.082Z,14.40
2024-03-12T09:54:10.332Z,14.40
2024-03-12T09:56:38.773Z,14.40
2024-03-12T09:59:09.259Z,14.30
2024-03-12T10:01:39.697Z,14.30
2024-03-12T10:04:07.891Z,14.30
2024-03-12T10:06:35.127Z,14.20
2024-03-12T10:09:02.241Z,14.20
2024-03-12T10:11:31.660Z,14.20
2024-03-12T10:13:59.882Z,14.10
2024-03-12T10:16:27.514Z,14.10
2024-03-12T10:19:18.476Z,14.10
2024-03-12T10:21:50.358Z,14.10
2024-03-12T10:24:19.113Z,14.10
2024-03-12T10:26:46.888Z,14.10
2024-03-12T10:29:19.401Z,14.10
2024-03-12T10:31:47.173Z,14.10
2024-03-12T10:34:18.698Z,14.10
2024-03-12T10:36:46.909Z,14.10
2024-03-12T10:39:25.182Z,14.10
2024-03-12T10:41:57.339Z,14.10
2024-03-12T10:44:24.371Z,14.10
2024-03-12T10:46:51.757Z,14.20
2024-03-12T10:49:19.268Z,14.20
2024-03-12T10:51:46.634Z,14.30
2024-03-12T10:54:17.550Z,14.30
2024-03-12T10:56:47.463Z,14.30
2024-03-12T10:59:17.278Z,14.30
2024-03-12T11:01:44.416Z,14.30
2024-03-12T11:04:14.545Z,14.40
2024-03-12T11:06:41.862Z,14.40
2024-03-12T11:09:09.508Z,14.40
2024-03-12T11:11:38.087Z,14.40
2024-03-12T11:14:08.192Z,14.50
2024-03-12T11:16:36.832Z,14.50
2024-03-12T11:19:26.150Z,14.50
2024-03-12T11:21:53.579Z,14.50
2024-03-12T11:24:28.930Z,14.50
2024-03-12T11:27:01.004Z,14.50
2024-03-12T11:30:05.547Z,14.60
2024-03-12T11:32:37.470Z,14.50
2024-03-12T11:35:12.593Z,14.60
2024-03-12T11:37:39.481Z,14.60
2024-03-12T11:40:27.470Z,14.60
2024-03-12T11:42:58.241Z,14.60
2024-03-12T11:45:49.649Z,14.60
2024-03-12T11:48:35.408Z,14.60
2024-03-12T11:51:05.074Z,14.60
2024-03-12T11:53:39.589Z,14.60
2024-03-12T11:56:09.159Z,14.60
2024-03-12T11:58:57.561Z,14.60
2024-03-12T12:01:33.552Z,14.50
2024-03-12T12:04:12.824Z,14.50
2024-03-12T12:06:40.869Z,14.50
2024-03-12T12:09:10.240Z,14.50
2024-03-12T12:11:39.164Z,14.50
2024-03-12T12:14:07.286Z,14.50
2024-03-12T12:16:34.333Z,14.50
2024-03-12T12:19:19.115Z,14.50
2024-03-12T12:21:51.011Z,14.50
2024-03-12T12:24:18.376Z,14.50
2024-03-12T12:26:46.770Z,14.60
2024-03-12T12:29:14.710Z,14.60
2024-03-12T12:31:43.172Z,14.60
2024-03-12T12:34:12.192Z,14.70
2024-03-12T12:36:44.844Z,14.70
2024-03-12T12:39:14.560Z,14.70
2024-03-12T12:41:46.874Z,14.80
2024-03-12T12:44:23.160Z,14.70
2024-03-12T12:46:53.705Z,14.80
2024-03-12T12:49:22.918Z,14.80
2024-03-12T12:51:51.965Z,14.80
2024-03-12T12:54:23.199Z,14.90
2024-03-12T12:56:52.054Z,14.80
2024-03-12T12:59:24.850Z,14.90
2024-03-12T13:01:52.411Z,14.90
2024-03-12T13:04:28.924Z,14.90
2024-03-12T13:06:58.681Z,14.80
2024-03-12T13:09:40.212Z,14.90
2024-03-12T13:12:09.745Z,14.80
2024-03-12T13:14:38.160Z,14.80
2024-03-12T13:17:07.664Z,14.80
2024-03-12T13:19:35.661Z,14.80
2024-03-12T13:22:10.321Z,14.90
2024-03-12T13:24:43.550Z,14.90
2024-03-12T13:27:11.158Z,14.90
2024-03-12T13:29:38.982Z,14.90
2024-03-12T13:32:06.719Z,14.90
2024-03-12T13:34:34.012Z,14.90
2024-03-12T13:37:02.108Z,14.90
2024-03-12T13:39:30.680Z,14.90
2024-03-12T13:41:59.021Z,15.00
2024-03-12T13:44:26.315Z,15.00
2024-03-12T13:46:55.694Z,15.00
2024-03-12T13:49:27.268Z,15.00
2024-03-12T13:51:54.461Z,15.00
2024-03-12T13:54:21.816Z,15.10
2024-03-12T13:56:48.657Z,15.10
2024-03-12T13:59:18.527Z,15.10
2024-03-12T14:01:48.416Z,15.10
2024-03-12T14:04:15.632Z,15.10
2024-03-12T14:06:42.727Z,15.10
2024-03-12T14:09:13.326Z,15.20
2024-03-12T14:11:43.825Z,15.10
2024-03-12T14:14:10.782Z,15.20
2024-03-12T14:16:37.736Z,15.20
2024-03-12T14:19:04.788Z,15.20
2024-03-12T14:21:34.101Z,15.20
2024-03-12T14:24:03.133Z,15.20
2024-03-12T14:26:30.324Z,15.20
2024-03-12T14:28:57.183Z,15.20
2024-03-12T14:31:24.225Z,15.20
2024-03-12T14:33:51.731Z,15.20
2024-03-12T14:36:18.764Z,15.20
2024-03-12T14:38:45.608Z,15.20
2024-03-12T14:41:12.717Z,15.10
2024-03-12T14:43:39.654Z,15.10
2024-03-12T14:46:06.687Z,15.20
2024-03-12T14:48:35.242Z,15.10
2024-03-12T14:51:02.502Z,15.10
2024-03-12T14:53:29.459Z,15.10
2024-03-12T14:55:57.520Z,15.10
2024-03-12T14:58:24.437Z,15.10
2024-03-12T15:00:51.499Z,15.10
2024-03-12T15:03:19.917Z,15.10
2024-03-12T15:05:48.474Z,15.10
2024-03-12T15:08:15.522Z,15.10
2024-03-12T15:10:42.534Z,15.10
2024-03-12T15:13:09.478Z,15.10
2024-03-12T15:15:36.648Z,15.10
2024-03-12T15:18:04.040Z,15.10
2024-03-12T15:20:31.211Z,15.10
2024-03-12T15:23:00.240Z,15.10
2024-03-12T15:25:29.131Z,15.10
2024-03-12T15:27:57.455Z,15.00
2024-03-12T15:30:24.579Z,15.00
2024-03-12T15:32:52.392Z,15.00
2024-03-12T15:35:20.267Z,15.00
2024-03-12T15:37:47.713Z,14.90
2024-03-12T15:40:15.880Z,14.90
2024-03-12T15:42:45.651Z,14.90
2024-03-12T15:45:16.458Z,14.90
2024-03-12T15:47:44.930Z,14.90
2024-03-12T15:50:13.196Z,14.90
2024-03-12T15:52:40.521Z,14.90
2024-03-12T15:55:09.568Z,14.80
2024-03-12T15:57:40.031Z,14.80
2024-03-12T16:00:09.712Z,14.80
2024-03-12T16:02:48.733Z,14.80
2024-03-12T16:05:16.126Z,14.80
2024-03-12T16:07:43.141Z,14.80
2024-03-12T16:10:11.000Z,14.80
2024-03-12T16:12:40.358Z,14.80
2024-03-12T16:15:10.805Z,14.70
2024-03-12T16:17:38.376Z,14.70
2024-03-12T16:20:13.872Z,14.70
2024-03-12T16:22:41.951Z,14.70
2024-03-12T16:25:09.497Z,14.70
2024-03-12T16:27:36.690Z,14.70
2024-03-12T16:30:04.891Z,14.70
2024-03-12T16:32:33.620Z,14.60
2024-03-12T16:35:00.830Z,14.60
2024-03-12T16:37:27.905Z,14.60
2024-03-12T16:39:55.501Z,14.60
2024-03-12T16:42:22.652Z,14.60
2024-03-12T16:44:51.304Z,14.60
2024-03-12T16:47:18.342Z,14.60
2024-03-12T16:49:46.639Z,14.60
2024-03-12T16:52:13.710Z,14.60
2024-03-12T16:54:41.136Z,14.50
2024-03-12T16:57:08.939Z,14.50
2024-03-12T16:59:36.327Z,14.50
2024-03-12T17:02:09.305Z,14.50
2024-03-12T17:04:38.143Z,14.50
2024-03-12T17:07:09.428Z,14.50
2024-03-12T17:09:40.253Z,14.50
2024-03-12T17:12:07.714Z,14.40
2024-03-12T17:14:36.294Z,14.50
2024-03-12T17:17:07.893Z,14.40
2024-03-12T17:19:37.064Z,14.40
2024-03-12T17:22:11.093Z,14.40
2024-03-12T17:24:40.057Z,14.40
2024-03-12T17:27:11.600Z,14.40
2024-03-12T17:29:38.984Z,14.40
2024-03-12T17:32:06.950Z,14.40
2024-03-12T17:34:34.205Z,14.40
2024-03-12T17:37:05.012Z,14.40
2024-03-12T17:39:35.680Z,14.40
2024-03-12T17:42:03.243Z,14.40
2024-03-12T17:44:30.414Z,14.40
2024-03-12T17:46:58.892Z,14.40
2024-03-12T17:49:31.928Z,14.40
2024-03-12T17:51:59.655Z,14.40
2024-03-12T17:54:26.980Z,14.40
2024-03-12T17:56:56.806Z,14.40
2024-03-12T17:59:25.479Z,14.40
2024-03-12T18:01:53.247Z,14.40
2024-03-12T18:04:20.600Z,14.40
2024-03-12T18:06:51.992Z,14.40
2024-03-12T18:09:25.745Z,14.30
2024-03-12T18:11:53.015Z,14.30
2024-03-12T18:14:20.115Z,14.30
2024-03-12T18:16:46.974Z,14.30
2024-03-12T18:19:14.587Z,14.30
2024-03-12T18:21:41.852Z,14.30
2024-03-12T18:24:10.232Z,14.20
2024-03-12T18:26:42.702Z,14.20
2024-03-12T18:29:10.365Z,14.20
2024-03-12T18:31:37.357Z,14.20
2024-03-12T18:34:05.785Z,14.20
2024-03-12T18:36:33.168Z,14.20
2024-03-12T18:38:59.998Z,14.20
2024-03-12T18:41:26.844Z,14.20
2024-03-12T18:43:53.695Z,14.20
2024-03-12T18:46:21.833Z,14.20
2024-03-12T18:48:49.279Z,14.20
2024-03-12T18:51:19.463Z,14.20
2024-03-12T18:53:46.862Z,14.20
2024-03-12T18:56:14.336Z,14.20
2024-03-12T18:58:41.545Z,14.20
2024-03-12T19:01:10.148Z,14.20
2024-03-12T19:03:50.751Z,14.20
2024-03-12T19:06:21.958Z,14.20
2024-03-12T19:08:53.839Z,14.10
2024-03-12T19:11:21.551Z,14.10
2024-03-12T19:13:48.970Z,14.10
2024-03-12T19:16:16.426Z,14.10
2024-03-12T19:18:49.205Z,14.10
2024-03-12T19:21:17.802Z,14.10
2024-03-12T19:23:49.515Z,14.10
2024-03-12T19:26:18.356Z,14.10
2024-03-12T19:28:46.420Z,14.10
2024-03-12T19:31:13.779Z,14.10
2024-03-12T19:33:41.177Z,14.10
2024-03-12T19:36:08.919Z,14.10
2024-03-12T19:38:36.657Z,14.10
2024-03-12T19:41:04.505Z,14.10
2024-03-12T19:43:31.783Z,14.10
2024-03-12T19:46:00.131Z,14.10
2024-03-12T19:48:28.454Z,14.10
2024-03-12T19:50:56.668Z,14.10
2024-03-12T19:53:23.744Z,14.10
2024-03-12T19:55:52.594Z,14.10
2024-03-12T19:58:20.027Z,14.00
2024-03-12T20:00:51.514Z,14.00
2024-03-12T20:03:23.733Z,14.00
2024-03-12T20:05:51.306Z,14.00
2024-03-12T20:08:19.852Z,13.90
2024-03-12T20:10:47.669Z,13.90
2024-03-12T20:13:14.765Z,13.90
2024-03-12T20:15:46.506Z,13.90
2024-03-12T20:18:14.806Z,13.90
2024-03-12T20:20:44.119Z,13.80
2024-03-12T20:23:11.796Z,13.80
2024-03-12T20:25:39.586Z,13.80
2024-03-12T20:28:10.830Z,13.80
2024-03-12T20:30:39.784Z,13.80
2024-03-12T20:33:09.882Z,13.80
2024-03-12T20:35:39.084Z,13.70
2024-03-12T20:38:09.954Z,13.70
2024-03-12T20:40:37.638Z,13.70
2024-03-12T20:43:07.048Z,13.70
2024-03-12T20:45:35.308Z,13.70
2024-03-12T20:48:02.855Z,13.70
2024-03-12T20:50:30.253Z,13.70
2024-03-12T20:52:57.371Z,13.60
2024-03-12T20:55:25.057Z,13.60
2024-03-12T20:57:53.179Z,13.60
2024-03-12T21:00:33.310Z,13.60
2024-03-12T21:03:00.316Z,13.60
2024-03-12T21:05:31.927Z,13.60
2024-03-12T21:07:59.686Z,13.60
2024-03-12T21:10:26.909Z,13.60
2024-03-12T21:12:54.056Z,13.60
2024-03-12T21:15:23.431Z,13.60
2024-03-12T21:17:50.562Z,13.60
2024-03-12T21:20:23.051Z,13.60
2024-03-12T21:22:52.793Z,13.60
2024-03-12T21:25:20.992Z,13.60
2024-03-12T21:27:48.377Z,13.50
2024-03-12T21:30:17.672Z,13.50
2024-03-12T21:32:45.347Z,13.50
2024-03-12T21:35:13.464Z,13.50
2024-03-12T21:37:40.650Z,13.50
2024-03-12T21:40:12.732Z,13.50
2024-03-12T21:42:41.866Z,13.50
2024-03-12T21:45:11.031Z,13.50
2024-03-12T21:47:38.507Z,13.40
2024-03-12T21:50:15.799Z,13.40
2024-03-12T21:52:43.450Z,13.40
2024-03-12T21:55:11.984Z,13.40
2024-03-12T21:57:40.757Z,13.30
2024-03-12T22:00:13.225Z,13.30
2024-03-12T22:02:41.143Z,13.30
2024-03-12T22:05:08.087Z,13.30
2024-03-12T22:07:38.264Z,13.30
2024-03-12T22:10:09.131Z,13.30
2024-03-12T22:12:36.362Z,13.30
2024-03-12T22:15:05.219Z,13.30
2024-03-12T22:17:32.893Z,13.20
2024-03-12T22:20:01.891Z,13.30
2024-03-12T22:22:29.722Z,13.20
2024-03-12T22:24:57.083Z,13.20
2024-03-12T22:27:25.149Z,13.20
2024-03-12T22:29:51.969Z,13.20
2024-03-12T22:32:26.738Z,13.20
2024-03-12T22:34:55.454Z,13.20
2024-03-12T22:37:22.843Z,13.20
2024-03-12T22:39:50.511Z,13.20
2024-03-12T22:42:18.607Z,13.20
2024-03-12T22:44:46.306Z,13.20
2024-03-12T22:47:13.701Z,13.10
2024-03-12T22:49:44.473Z,13.10
2024-03-12T22:52:12.636Z,13.10
2024-03-12T22:54:41.351Z,13.10
2024-03-12T22:57:09.536Z,13.10
2024-03-12T22:59:36.762Z,13.10
2024-03-12T23:02:04.588Z,13.10
2024-03-12T23:04:31.798Z,13.10
2024-03-12T23:06:58.947Z,13.00
2024-03-12T23:09:26.960Z,13.00
2024-03-12T23:11:57.344Z,13.00
2024-03-12T23:14:25.219Z,13.00
2024-03-12T23:16:52.552Z,13.00
2024-03-12T23:19:20.500Z,12.90
2024-03-12T23:21:48.368Z,12.90
2024-03-12T23:24:15.428Z,12.90
2024-03-12T23:26:43.714Z,12.90
2024-03-12T23:29:13.383Z,12.90
2024-03-12T23:31:40.317Z,12.90
2024-03-12T23:34:07.472Z,12.80
2024-03-12T23:36:34.799Z,12.80
2024-03-12T23:39:01.769Z,12.90
2024-03-12T23:41:31.071Z,12.80
2024-03-12T23:43:58.194Z,12.80
2024-03-12T23:46:25.859Z,12.80
2024-03-12T23:48:53.106Z,12.80
2024-03-12T23:51:19.982Z,12.80
2024-03-12T23:53:47.270Z,12.80
2024-03-12T23:56:14.283Z,12.70
2024-03-12T23:58:41.247Z,12.70
